createdAt,value
2019-03-23T00:00:38.496Z,6.70
2019-03-23T00:03:11.880Z,6.60
2019-03-23T00:05:47.431Z,6.50
2019-03-23T00:08:20.527Z,6.50
2019-03-23T00:10:53.118Z,6.40
2019-03-23T00:13:26.143Z,6.40
2019-03-23T00:15:58.334Z,6.50
2019-03-23T00:18:30.827Z,6.50
2019-03-23T00:21:03.747Z,6.40
2019-03-23T00:23:36.532Z,6.40
2019-03-23T00:26:09.186Z,6.20
2019-03-23T00:28:40.899Z,6.10
2019-03-23T00:31:13.557Z,6.10
2019-03-23T00:33:46.130Z,6.10
2019-03-23T00:36:18.890Z,6.10
2019-03-23T00:38:51.620Z,6.10
2019-03-23T00:41:24.549Z,6.10
2019-03-23T00:43:57.093Z,6.00
2019-03-23T00:46:28.908Z,6.10
2019-03-23T00:49:01.499Z,6.40
2019-03-23T00:51:33.619Z,6.30
2019-03-23T00:54:05.770Z,6.10
2019-03-23T00:56:37.954Z,6.00
2019-03-23T00:59:10.137Z,5.90
2019-03-23T01:01:42.447Z,5.80
2019-03-23T01:04:14.632Z,5.90
2019-03-23T01:06:52.067Z,5.90
2019-03-23T01:09:22.006Z,5.80
2019-03-23T01:11:54.947Z,5.80
2019-03-23T01:14:27.561Z,5.80
2019-03-23T01:17:00.135Z,5.70
2019-03-23T01:19:32.707Z,5.80
2019-03-23T01:22:05.298Z,5.80
2019-03-23T01:24:38.443Z,5.90
2019-03-23T01:27:11.346Z,5.90
2019-03-23T01:29:43.258Z,5.80
2019-03-23T01:32:15.242Z,5.70
2019-03-23T01:34:47.865Z,5.80
2019-03-23T01:37:19.866Z,5.80
2019-03-23T01:39:52.560Z,5.70
2019-03-23T01:42:25.230Z,5.80
2019-03-23T01:44:57.838Z,5.80
2019-03-23T01:47:30.463Z,5.80
2019-03-23T01:50:03.450Z,5.90
2019-03-23T01:52:35.810Z,5.80
2019-03-23T01:55:08.331Z,5.80
2019-03-23T01:57:40.996Z,5.70
2019-03-23T02:00:14.526Z,5.70
2019-03-23T02:02:47.652Z,5.70
2019-03-23T02:05:20.722Z,5.70
2019-03-23T02:07:53.608Z,5.70
2019-03-23T02:10:25.888Z,5.70
2019-03-23T02:12:58.491Z,5.70
2019-03-23T02:15:31.038Z,5.70
2019-03-23T02:18:04.015Z,5.60
2019-03-23T02:20:36.290Z,5.70
2019-03-23T02:23:08.144Z,5.70
2019-03-23T02:25:40.303Z,5.60
2019-03-23T02:28:12.776Z,5.60
2019-03-23T02:30:45.736Z,5.60
2019-03-23T02:33:17.653Z,5.60
2019-03-23T02:35:50.222Z,5.60
2019-03-23T02:38:22.431Z,5.60
2019-03-23T02:40:54.386Z,5.50
2019-03-23T02:43:25.879Z,5.50
2019-03-23T02:45:58.800Z,5.70
2019-03-23T02:48:31.346Z,5.60
2019-03-23T02:51:03.728Z,5.70
2019-03-23T02:53:36.320Z,5.60
2019-03-23T02:56:08.985Z,5.60
2019-03-23T02:58:41.670Z,5.60
2019-03-23T03:01:14.276Z,5.60
2019-03-23T03:03:48.663Z,5.60
2019-03-23T03:06:21.258Z,5.60
2019-03-23T03:08:53.597Z,5.60
2019-03-23T03:11:26.639Z,5.60
2019-03-23T03:13:59.297Z,5.60
2019-03-23T03:16:31.219Z,5.50
2019-03-23T03:19:03.509Z,5.50
2019-03-23T03:21:36.506Z,5.50
2019-03-23T03:24:09.118Z,5.50
2019-03-23T03:26:42.062Z,5.50
2019-03-23T03:29:14.973Z,5.50
2019-03-23T03:31:47.644Z,5.50
2019-03-23T03:34:19.237Z,5.40
2019-03-23T03:36:51.418Z,5.40
2019-03-23T03:39:23.922Z,5.40
2019-03-23T03:41:56.047Z,5.30
2019-03-23T03:44:28.989Z,5.40
2019-03-23T03:47:01.954Z,5.40
2019-03-23T03:49:34.120Z,5.30
2019-03-23T03:52:06.431Z,5.40
2019-03-23T03:54:39.004Z,5.30
2019-03-23T03:57:11.582Z,5.30
2019-03-23T03:59:43.922Z,5.20
2019-03-23T04:02:16.844Z,5.20
2019-03-23T04:04:49.534Z,5.20
2019-03-23T04:07:22.082Z,5.20
2019-03-23T04:09:54.017Z,5.20
2019-03-23T04:12:26.656Z,5.10
2019-03-23T04:14:58.547Z,5.20
2019-03-23T04:17:31.403Z,5.20
2019-03-23T04:20:04.051Z,5.20
2019-03-23T04:22:36.641Z,5.20
2019-03-23T04:25:09.257Z,5.20
2019-03-23T04:27:41.770Z,5.20
2019-03-23T04:30:15.228Z,5.30
2019-03-23T04:32:47.411Z,5.30
2019-03-23T04:35:20.402Z,5.30
2019-03-23T04:37:52.876Z,5.20
2019-03-23T04:40:25.463Z,5.20
2019-03-23T04:42:58.105Z,5.20
2019-03-23T04:45:29.930Z,5.20
2019-03-23T04:48:01.669Z,5.20
2019-03-23T04:50:34.171Z,5.20
2019-03-23T04:53:07.310Z,5.20
2019-03-23T04:55:39.926Z,5.20
2019-03-23T04:58:12.184Z,5.10
2019-03-23T05:00:44.237Z,5.10
2019-03-23T05:03:16.176Z,5.10
2019-03-23T05:05:48.711Z,5.00
2019-03-23T05:08:21.281Z,5.00
2019-03-23T05:10:53.467Z,5.00
2019-03-23T05:13:25.384Z,5.00
2019-03-23T05:15:58.383Z,5.00
2019-03-23T05:18:30.673Z,4.90
2019-03-23T05:21:03.255Z,4.90
2019-03-23T05:23:35.976Z,5.00
2019-03-23T05:26:08.212Z,5.00
2019-03-23T05:28:40.122Z,4.90
2019-03-23T05:31:12.835Z,4.90
2019-03-23T05:33:45.467Z,4.90
2019-03-23T05:36:18.464Z,4.90
2019-03-23T05:38:51.034Z,5.00
2019-03-23T05:41:23.421Z,4.90
2019-03-23T05:43:55.421Z,4.90
2019-03-23T05:46:28.163Z,5.00
2019-03-23T05:49:00.795Z,5.00
2019-03-23T05:51:33.465Z,5.00
2019-03-23T05:54:06.412Z,5.00
2019-03-23T05:56:38.997Z,5.00
2019-03-23T05:59:11.171Z,5.10
2019-03-23T06:01:43.121Z,5.20
2019-03-23T06:04:15.655Z,5.40
2019-03-23T06:06:48.301Z,5.40
2019-03-23T06:09:20.520Z,5.50
2019-03-23T06:11:53.061Z,5.40
2019-03-23T06:14:24.540Z,5.30
2019-03-23T06:16:56.131Z,5.40
2019-03-23T06:19:29.063Z,5.40
2019-03-23T06:22:50.648Z,5.50
2019-03-23T06:25:23.812Z,5.50
2019-03-23T06:27:56.362Z,5.70
2019-03-23T06:30:28.613Z,5.90
2019-03-23T06:33:00.874Z,5.90
2019-03-23T06:35:33.467Z,5.90
2019-03-23T06:38:07.283Z,6.00
2019-03-23T06:40:40.657Z,6.20
2019-03-23T06:43:13.524Z,6.20
2019-03-23T06:45:45.731Z,6.40
2019-03-23T06:48:23.937Z,6.60
2019-03-23T06:51:25.907Z,6.70
2019-03-23T06:55:52.495Z,6.80
2019-03-23T06:57:40.438Z,7.00
2019-03-23T07:00:13.677Z,7.10
2019-03-23T07:02:45.673Z,7.20
2019-03-23T07:05:17.785Z,7.30
2019-03-23T07:07:50.440Z,7.50
2019-03-23T07:10:23.383Z,7.70
2019-03-23T07:12:55.701Z,7.70
2019-03-23T07:15:28.638Z,7.80
2019-03-23T07:18:00.957Z,8.00
2019-03-23T07:20:33.465Z,7.90
2019-03-23T07:23:05.631Z,8.20
2019-03-23T07:25:38.363Z,8.40
2019-03-23T07:28:11.266Z,8.40
2019-03-23T07:30:44.209Z,8.50
2019-03-23T07:33:16.583Z,8.50
2019-03-23T07:35:49.236Z,8.80
2019-03-23T07:38:21.934Z,8.80
2019-03-23T07:40:54.043Z,8.90
2019-03-23T07:43:27.107Z,8.90
2019-03-23T07:45:59.550Z,9.10
2019-03-23T07:48:38.277Z,9.20
2019-03-23T07:51:10.864Z,9.30
2019-03-23T07:53:43.605Z,9.50
2019-03-23T07:56:16.281Z,9.50
2019-03-23T07:58:48.155Z,9.60
2019-03-23T08:01:21.136Z,9.60
2019-03-23T08:04:13.755Z,9.80
2019-03-23T08:06:46.146Z,10.00
2019-03-23T08:09:20.749Z,10.20
2019-03-23T08:11:52.879Z,10.20
2019-03-23T08:14:24.797Z,10.30
2019-03-23T08:16:57.905Z,10.40
2019-03-23T08:19:30.798Z,10.70
2019-03-23T08:22:03.371Z,10.80
2019-03-23T08:24:36.547Z,10.90
2019-03-23T08:27:08.868Z,10.90
2019-03-23T08:29:41.775Z,10.90
2019-03-23T08:32:13.690Z,11.10
2019-03-23T08:34:45.541Z,11.20
2019-03-23T08:37:19.356Z,11.30
2019-03-23T08:39:51.703Z,11.40
2019-03-23T08:42:23.977Z,11.60
2019-03-23T08:44:55.904Z,11.70
2019-03-23T08:47:29.816Z,11.70
2019-03-23T08:50:01.698Z,11.80
2019-03-23T08:52:34.340Z,11.70
2019-03-23T08:55:06.861Z,11.90
2019-03-23T08:57:41.339Z,12.20
2019-03-23T09:00:13.919Z,12.40
2019-03-23T09:02:46.218Z,12.40
2019-03-23T09:05:18.578Z,12.50
2019-03-23T09:07:52.598Z,12.60
2019-03-23T09:10:24.985Z,12.60
2019-03-23T09:12:57.680Z,12.70
2019-03-23T09:15:35.361Z,12.80
2019-03-23T09:18:17.215Z,13.00
2019-03-23T09:20:49.441Z,13.00
2019-03-23T09:23:22.389Z,13.10
2019-03-23T09:25:54.584Z,13.20
2019-03-23T09:28:27.178Z,13.30
2019-03-23T09:30:59.465Z,13.50
2019-03-23T09:33:31.389Z,13.60
2019-03-23T09:36:03.789Z,13.80
2019-03-23T09:38:36.475Z,13.80
2019-03-23T09:41:09.085Z,13.90
2019-03-23T09:43:41.420Z,14.10
2019-03-23T09:46:13.846Z,14.00
2019-03-23T09:48:46.044Z,14.20
2019-03-23T09:51:18.483Z,14.30
2019-03-23T09:53:50.757Z,14.20
2019-03-23T09:56:22.665Z,14.50
2019-03-23T09:58:55.240Z,14.60
2019-03-23T10:01:27.356Z,14.70
2019-03-23T10:03:59.754Z,14.80
2019-03-23T10:06:33.006Z,14.90
2019-03-23T10:09:08.085Z,14.90
2019-03-23T10:11:41.575Z,15.00
2019-03-23T10:14:14.653Z,15.10
2019-03-23T10:16:47.060Z,15.20
2019-03-23T10:19:19.659Z,15.00
2019-03-23T10:21:51.997Z,15.30
2019-03-23T10:24:24.452Z,15.30
2019-03-23T10:26:58.083Z,15.50
2019-03-23T10:29:30.757Z,15.60
2019-03-23T10:32:02.711Z,15.80
2019-03-23T10:34:35.401Z,15.90
2019-03-23T10:37:07.997Z,16.10
2019-03-23T10:39:40.502Z,16.20
2019-03-23T10:42:13.317Z,16.30
2019-03-23T10:44:45.948Z,16.50
2019-03-23T10:47:19.251Z,16.70
2019-03-23T10:49:52.070Z,16.80
2019-03-23T10:52:25.050Z,17.00
2019-03-23T10:54:57.963Z,17.20
2019-03-23T10:57:30.870Z,17.10
2019-03-23T11:00:03.600Z,17.30
2019-03-23T11:02:35.051Z,17.30
2019-03-23T11:05:08.121Z,17.60
2019-03-23T11:07:40.841Z,17.80
2019-03-23T11:10:13.567Z,18.10
2019-03-23T11:12:45.724Z,18.90
2019-03-23T11:15:17.999Z,19.50
2019-03-23T11:17:50.007Z,19.80
2019-03-23T11:20:23.223Z,20.00
2019-03-23T11:22:55.142Z,19.80
2019-03-23T11:25:27.462Z,19.90
2019-03-23T11:27:59.603Z,20.20
2019-03-23T11:30:32.170Z,21.00
2019-03-23T11:33:05.236Z,21.10
2019-03-23T11:35:37.583Z,21.50
2019-03-23T11:38:09.983Z,21.40
2019-03-23T11:40:52.179Z,20.90
2019-03-23T11:43:17.168Z,20.40
2019-03-23T11:45:49.866Z,20.90
2019-03-23T11:48:22.168Z,20.70
2019-03-23T11:50:55.031Z,21.10
2019-03-23T11:53:27.754Z,21.10
2019-03-23T11:55:59.912Z,21.70
2019-03-23T11:58:31.774Z,22.40
2019-03-23T12:01:04.756Z,22.90
2019-03-23T12:03:36.965Z,22.00
2019-03-23T12:06:09.585Z,21.80
2019-03-23T12:08:42.309Z,22.00
2019-03-23T12:11:15.441Z,22.60
2019-03-23T12:13:48.695Z,23.20
2019-03-23T12:16:20.617Z,22.80
2019-03-23T12:18:52.970Z,22.60
2019-03-23T12:21:24.916Z,23.10
2019-03-23T12:23:57.870Z,23.00
2019-03-23T12:26:30.210Z,23.50
2019-03-23T12:29:03.183Z,23.60
2019-03-23T12:31:35.739Z,23.60
2019-03-23T12:34:08.086Z,23.20
2019-03-23T12:36:40.934Z,23.20
2019-03-23T12:39:12.775Z,23.20
2019-03-23T12:41:45.387Z,23.00
2019-03-23T12:44:17.348Z,23.50
2019-03-23T12:46:49.656Z,24.10
2019-03-23T12:49:22.218Z,23.90
2019-03-23T12:51:54.798Z,23.80
2019-03-23T12:54:26.931Z,24.40
2019-03-23T12:56:59.860Z,24.90
2019-03-23T12:59:32.170Z,25.00
2019-03-23T13:02:05.196Z,24.60
2019-03-23T13:04:37.775Z,24.00
2019-03-23T13:07:10.221Z,23.70
2019-03-23T13:09:43.038Z,23.50
2019-03-23T13:12:15.646Z,24.20
2019-03-23T13:14:47.655Z,25.00
2019-03-23T13:17:20.696Z,25.20
2019-03-23T13:19:53.248Z,25.30
2019-03-23T13:22:25.966Z,25.20
2019-03-23T13:24:58.629Z,25.00
2019-03-23T13:27:31.044Z,25.10
2019-03-23T13:30:03.691Z,25.00
2019-03-23T13:32:36.320Z,25.20
2019-03-23T13:35:09.687Z,25.10
2019-03-23T13:37:42.653Z,25.50
2019-03-23T13:40:14.852Z,25.40
2019-03-23T13:42:47.191Z,25.80
2019-03-23T13:45:20.867Z,25.50
2019-03-23T13:47:54.896Z,25.70
2019-03-23T13:50:31.773Z,25.00
2019-03-23T13:53:04.763Z,24.60
2019-03-23T13:55:37.459Z,24.30
2019-03-23T13:58:13.925Z,24.00
2019-03-23T14:00:46.290Z,24.60
2019-03-23T14:03:18.674Z,24.10
2019-03-23T14:05:51.648Z,24.90
2019-03-23T14:08:24.285Z,24.90
2019-03-23T14:10:57.215Z,24.80
2019-03-23T14:13:29.280Z,24.80
2019-03-23T14:16:02.111Z,25.00
2019-03-23T14:18:35.785Z,24.90
2019-03-23T14:21:08.234Z,25.50
2019-03-23T14:23:40.259Z,24.90
2019-03-23T14:26:12.458Z,25.30
2019-03-23T14:28:44.817Z,25.70
2019-03-23T14:31:19.986Z,25.90
2019-03-23T14:33:55.124Z,25.90
2019-03-23T14:36:32.339Z,25.80
2019-03-23T14:39:05.983Z,25.70
2019-03-23T14:41:41.098Z,25.30
2019-03-23T14:44:14.267Z,25.30
2019-03-23T14:46:46.585Z,26.00
2019-03-23T14:49:19.244Z,26.20
2019-03-23T14:51:51.841Z,26.60
2019-03-23T14:54:24.126Z,26.90
2019-03-23T14:56:56.791Z,27.10
2019-03-23T14:59:29.442Z,26.50
2019-03-23T15:02:02.413Z,26.50
2019-03-23T15:04:34.735Z,25.40
2019-03-23T15:07:07.786Z,26.00
2019-03-23T15:09:40.545Z,26.00
2019-03-23T15:12:15.222Z,25.60
2019-03-23T15:14:46.955Z,25.20
2019-03-23T15:17:19.134Z,25.00
2019-03-23T15:19:52.175Z,25.00
2019-03-23T15:22:24.834Z,25.00
2019-03-23T15:24:57.114Z,24.50
2019-03-23T15:27:29.346Z,24.70
2019-03-23T15:30:02.011Z,24.60
2019-03-23T15:32:34.481Z,24.60
2019-03-23T15:35:07.480Z,24.00
2019-03-23T15:37:39.299Z,23.40
2019-03-23T15:40:12.262Z,23.10
2019-03-23T15:42:44.289Z,23.00
2019-03-23T15:45:16.675Z,22.90
2019-03-23T15:47:49.263Z,22.50
2019-03-23T15:50:21.938Z,21.70
2019-03-23T15:52:54.886Z,22.20
2019-03-23T15:55:27.389Z,22.00
2019-03-23T15:57:59.634Z,21.70
2019-03-23T16:00:31.964Z,21.80
2019-03-23T16:03:04.620Z,21.90
2019-03-23T16:05:37.507Z,21.80
2019-03-23T16:08:10.278Z,21.70
2019-03-23T16:10:42.253Z,21.70
2019-03-23T16:13:15.273Z,21.20
2019-03-23T16:15:46.973Z,20.90
2019-03-23T16:18:19.331Z,20.70
2019-03-23T16:20:52.065Z,20.40
2019-03-23T16:23:24.620Z,20.40
2019-03-23T16:25:56.920Z,20.50
2019-03-23T16:28:29.325Z,20.30
2019-03-23T16:31:01.989Z,20.20
2019-03-23T16:33:34.289Z,20.00
2019-03-23T16:36:07.989Z,20.10
2019-03-23T16:38:40.705Z,20.20
2019-03-23T16:41:13.795Z,20.10
2019-03-23T16:43:45.054Z,19.90
2019-03-23T16:46:18.024Z,19.80
2019-03-23T16:48:50.469Z,19.70
2019-03-23T16:51:22.392Z,19.70
2019-03-23T16:53:55.009Z,19.70
2019-03-23T16:56:27.518Z,19.60
2019-03-23T16:59:00.345Z,19.40
2019-03-23T17:01:32.159Z,19.40
2019-03-23T17:04:06.520Z,19.20
2019-03-23T17:06:46.333Z,19.20
2019-03-23T17:09:13.503Z,19.10
2019-03-23T17:11:46.456Z,19.00
2019-03-23T17:14:19.192Z,18.90
2019-03-23T17:16:51.796Z,18.60
2019-03-23T17:19:24.704Z,18.60
2019-03-23T17:21:57.035Z,18.40
2019-03-23T17:24:28.876Z,18.20
2019-03-23T17:27:01.603Z,18.10
2019-03-23T17:29:34.502Z,18.00
2019-03-23T17:32:07.159Z,17.90
2019-03-23T17:34:39.755Z,17.70
2019-03-23T17:37:12.436Z,17.60
2019-03-23T17:39:44.744Z,17.60
2019-03-23T17:42:17.426Z,17.30
2019-03-23T17:44:49.336Z,16.80
2019-03-23T17:47:21.765Z,16.50
2019-03-23T17:49:54.439Z,16.50
2019-03-23T17:52:26.693Z,16.10
2019-03-23T17:54:58.787Z,15.70
2019-03-23T17:57:31.837Z,15.40
2019-03-23T18:00:05.011Z,15.20
2019-03-23T18:02:37.514Z,15.20
2019-03-23T18:05:12.056Z,15.10
2019-03-23T18:07:44.908Z,14.90
2019-03-23T18:10:16.827Z,14.90
2019-03-23T18:12:49.370Z,14.70
2019-03-23T18:15:21.615Z,14.60
2019-03-23T18:17:54.424Z,14.30
2019-03-23T18:20:26.794Z,14.10
2019-03-23T18:22:59.176Z,14.00
2019-03-23T18:25:31.890Z,14.00
2019-03-23T18:28:04.307Z,13.80
2019-03-23T18:30:44.543Z,13.60
2019-03-23T18:33:17.737Z,13.50
2019-03-23T18:35:49.390Z,13.40
2019-03-23T18:38:22.121Z,13.20
2019-03-23T18:40:54.973Z,13.00
2019-03-23T18:43:28.058Z,12.90
2019-03-23T18:46:00.502Z,12.80
2019-03-23T18:48:32.881Z,12.70
2019-03-23T18:51:05.647Z,12.60
2019-03-23T18:53:38.605Z,12.60
2019-03-23T18:56:11.294Z,12.50
2019-03-23T18:58:44.377Z,12.40
2019-03-23T19:01:16.921Z,12.30
2019-03-23T19:03:49.762Z,12.30
2019-03-23T19:06:22.592Z,12.10
2019-03-23T19:08:55.462Z,12.10
2019-03-23T19:11:28.733Z,12.00
2019-03-23T19:14:01.398Z,12.00
2019-03-23T19:16:34.310Z,11.90
2019-03-23T19:19:06.899Z,11.70
2019-03-23T19:21:39.006Z,11.60
2019-03-23T19:24:11.916Z,11.70
2019-03-23T19:26:44.915Z,11.50
2019-03-23T19:29:17.866Z,11.50
2019-03-23T19:31:50.791Z,11.40
2019-03-23T19:34:22.697Z,11.30
2019-03-23T19:36:55.520Z,11.30
2019-03-23T19:39:28.747Z,11.30
2019-03-23T19:42:01.427Z,11.40
2019-03-23T19:44:33.591Z,11.20
2019-03-23T19:47:07.067Z,11.10
2019-03-23T19:49:39.595Z,11.00
2019-03-23T19:52:11.847Z,11.00
2019-03-23T19:54:44.687Z,11.00
2019-03-23T19:57:17.085Z,11.00
2019-03-23T19:59:49.379Z,11.00
2019-03-23T20:02:21.711Z,10.80
2019-03-23T20:04:55.969Z,10.80
2019-03-23T20:07:32.994Z,10.70
2019-03-23T20:10:03.805Z,10.70
2019-03-23T20:12:37.574Z,10.60
2019-03-23T20:15:11.226Z,10.70
2019-03-23T20:17:44.948Z,10.70
2019-03-23T20:20:20.061Z,10.70
2019-03-23T20:22:53.835Z,10.60
2019-03-23T20:25:27.933Z,10.50
2019-03-23T20:28:00.267Z,10.30
2019-03-23T20:30:34.041Z,10.20
2019-03-23T20:33:06.666Z,10.10
2019-03-23T20:35:39.262Z,10.20
2019-03-23T20:38:12.571Z,10.20
2019-03-23T20:40:45.892Z,10.20
2019-03-23T20:43:18.866Z,10.10
2019-03-23T20:45:52.251Z,10.10
2019-03-23T20:48:28.097Z,10.00
2019-03-23T20:51:00.231Z,10.00
2019-03-23T20:53:32.117Z,10.00
2019-03-23T20:56:04.718Z,10.00
2019-03-23T20:58:37.149Z,9.90
2019-03-23T21:01:09.946Z,9.90
2019-03-23T21:03:42.203Z,9.90
2019-03-23T21:06:14.263Z,9.90
2019-03-23T21:08:46.417Z,9.90
2019-03-23T21:11:19.517Z,9.90
2019-03-23T21:13:52.151Z,9.90
2019-03-23T21:16:24.123Z,9.90
2019-03-23T21:18:57.125Z,9.90
2019-03-23T21:21:29.727Z,10.00
2019-03-23T21:24:02.703Z,10.00
2019-03-23T21:26:35.639Z,10.00
2019-03-23T21:29:07.641Z,9.90
2019-03-23T21:31:40.274Z,9.90
2019-03-23T21:34:12.542Z,9.80
2019-03-23T21:36:44.695Z,9.80
2019-03-23T21:39:17.045Z,9.80
2019-03-23T21:41:49.680Z,9.80
2019-03-23T21:44:30.609Z,9.70
2019-03-23T21:46:56.219Z,9.70
2019-03-23T21:49:28.834Z,9.60
2019-03-23T21:52:00.656Z,9.60
2019-03-23T21:54:32.818Z,9.60
2019-03-23T21:57:05.424Z,9.50
2019-03-23T21:59:38.099Z,9.40
2019-03-23T22:02:11.111Z,9.40
2019-03-23T22:04:43.502Z,9.40
2019-03-23T22:07:16.483Z,9.40
2019-03-23T22:09:49.430Z,9.30
2019-03-23T22:12:21.590Z,9.30
2019-03-23T22:14:54.226Z,9.20
2019-03-23T22:17:27.461Z,9.10
2019-03-23T22:19:59.628Z,9.00
2019-03-23T22:22:32.577Z,8.90
2019-03-23T22:25:04.554Z,8.80
2019-03-23T22:27:36.634Z,8.70
2019-03-23T22:30:12.298Z,8.70
2019-03-23T22:32:44.977Z,8.60
2019-03-23T22:35:16.693Z,8.60
2019-03-23T22:37:49.284Z,8.50
2019-03-23T22:40:21.915Z,8.50
2019-03-23T22:42:53.862Z,8.50
2019-03-23T22:45:25.828Z,8.40
2019-03-23T22:47:58.499Z,8.40
2019-03-23T22:50:30.910Z,8.40
2019-03-23T22:53:03.595Z,8.30
2019-03-23T22:55:36.328Z,8.20
2019-03-23T22:58:09.007Z,8.30
2019-03-23T23:00:45.833Z,8.20
2019-03-23T23:03:18.485Z,8.20
2019-03-23T23:05:51.264Z,8.10
2019-03-23T23:08:23.767Z,8.10
2019-03-23T23:10:56.136Z,8.00
2019-03-23T23:13:28.948Z,8.00
2019-03-23T23:16:01.411Z,7.90
2019-03-23T23:18:34.056Z,7.90
2019-03-23T23:21:06.613Z,7.80
2019-03-23T23:23:39.225Z,7.80
2019-03-23T23:26:11.351Z,7.80
2019-03-23T23:28:43.946Z,7.80
2019-03-23T23:31:16.644Z,7.70
2019-03-23T23:33:49.196Z,7.60
2019-03-23T23:36:21.609Z,7.50
2019-03-23T23:38:54.692Z,7.50
2019-03-23T23:41:27.128Z,7.40
2019-03-23T23:43:59.839Z,7.40
2019-03-23T23:46:53.383Z,7.40
2019-03-23T23:49:36.010Z,7.40
2019-03-23T23:52:07.912Z,7.40
2019-03-23T23:54:49.214Z,7.30
2019-03-23T23:57:24.081Z,7.30
2019-03-23T23:59:58.584Z,7.20
